Sankofa — 9GMV — position and weather

sailwx.info

Track history (hours):
 
Tides and Currents Weather Stations Pressure Air Temp Water Temp Dewpoint Dewpoint Depression Visibility Wind Speed Wind Dir Waves Ship Positions

Sankofa

Last reported at 2018-Jun-24 14:13 UTC. Time now 2018-Jun-25 03:56 UTC.
Position N 05°54' E 001°06'.

Length 57 m; draft 5.2 m.

Type: Fishing. MMSI: 627163000.

Date/timePositionNaut miles runAvg speedWind from/ knotsBaromVisibWave heightAir tempDewpointWater temp
2018-Jun-24 14:13N 05°54' E 001°06'5 0.7
2018-Jun-24 07:44N 05°57' E 001°03'1 1.8
2018-Jun-24 07:21N 05°57' E 001°03'1 2.3
2018-Jun-24 07:00N 05°57' E 001°03'0 0.7
2018-Jun-24 06:24N 05°57' E 001°02'  
2018-Jun-21 08:22N 05°56' E 001°02'9 0.2
2018-Jun-19 05:51N 06°04' E 001°07'3 5.8
2018-Jun-19 05:24N 06°01' E 001°06'3 7.9
2018-Jun-19 05:00N 05°58' E 001°07'47 1.2
2018-Jun-17 14:24N 05°28' E 000°30'410.7
2018-Jun-17 13:59N 05°27' E 000°26'4 7.4
2018-Jun-17 13:30N 05°27' E 000°22'5 9.5
2018-Jun-17 13:00N 05°27' E 000°17'610.6
2018-Jun-17 12:29N 05°27' E 000°12'510.4
2018-Jun-17 12:01N 05°27' E 000°07'510.5
2018-Jun-17 11:30N 05°27' E 000°01'510.4
2018-Jun-17 10:59N 05°27' W 000°04'510.3
2018-Jun-17 10:31N 05°27' W 000°09'510.5
2018-Jun-17 10:01N 05°26' W 000°14'610.6
2018-Jun-17 09:29N 05°26' W 000°20'4 5.6
2018-Jun-17 08:50N 05°26' W 000°23'0 0.7
2018-Jun-17 08:30N 05°25' W 000°24'0 0.6
2018-Jun-17 08:00N 05°25' W 000°24'  
2018-Jun-15 00:05N 05°32' E 000°25'0 1.8
2018-Jun-14 23:59N 05°32' E 000°25'0 0.4
2018-Jun-14 23:14N 05°32' E 000°25'2 0.4
2018-Jun-14 17:59N 05°34' E 000°26'3 4.6
2018-Jun-14 17:20N 05°34' E 000°23'1 4.0
2018-Jun-14 16:58N 05°34' E 000°22'2 4.0
2018-Jun-14 16:29N 05°33' E 000°20'1 2.5
2018-Jun-14 15:59N 05°32' E 000°19'3 6.6
2018-Jun-14 15:30N 05°30' E 000°16'510.1
2018-Jun-14 15:00N 05°27' E 000°12'510.1
2018-Jun-14 14:29N 05°24' E 000°08'  
Track history (hours):
 
Tides and Currents Weather Stations Pressure Air Temp Water Temp Dewpoint Dewpoint Depression Visibility Wind Speed Wind Dir Waves Ship Positions

Sankofa

Last reported at 2018-Jun-24 14:13 UTC. Time now 2018-Jun-25 03:56 UTC.
Position N 05°54' E 001°06'.

Length 57 m; draft 5.2 m.

Type: Fishing. MMSI: 627163000.

Date/timePositionNaut miles runAvg speedWind from/ knotsBaromVisibWave heightAir tempDewpointWater temp
2018-Jun-24 14:13N 05°54' E 001°06'5 0.7
2018-Jun-24 07:44N 05°57' E 001°03'1 1.8
2018-Jun-24 07:21N 05°57' E 001°03'1 2.3
2018-Jun-24 07:00N 05°57' E 001°03'0 0.7
2018-Jun-24 06:24N 05°57' E 001°02'  
2018-Jun-21 08:22N 05°56' E 001°02'9 0.2
2018-Jun-19 05:51N 06°04' E 001°07'3 5.8
2018-Jun-19 05:24N 06°01' E 001°06'3 7.9
2018-Jun-19 05:00N 05°58' E 001°07'47 1.2
2018-Jun-17 14:24N 05°28' E 000°30'410.7
2018-Jun-17 13:59N 05°27' E 000°26'4 7.4
2018-Jun-17 13:30N 05°27' E 000°22'5 9.5
2018-Jun-17 13:00N 05°27' E 000°17'610.6
2018-Jun-17 12:29N 05°27' E 000°12'510.4
2018-Jun-17 12:01N 05°27' E 000°07'510.5
2018-Jun-17 11:30N 05°27' E 000°01'510.4
2018-Jun-17 10:59N 05°27' W 000°04'510.3
2018-Jun-17 10:31N 05°27' W 000°09'510.5
2018-Jun-17 10:01N 05°26' W 000°14'610.6
2018-Jun-17 09:29N 05°26' W 000°20'4 5.6
2018-Jun-17 08:50N 05°26' W 000°23'0 0.7
2018-Jun-17 08:30N 05°25' W 000°24'0 0.6
2018-Jun-17 08:00N 05°25' W 000°24'  
2018-Jun-15 00:05N 05°32' E 000°25'0 1.8
2018-Jun-14 23:59N 05°32' E 000°25'0 0.4
2018-Jun-14 23:14N 05°32' E 000°25'2 0.4
2018-Jun-14 17:59N 05°34' E 000°26'3 4.6
2018-Jun-14 17:20N 05°34' E 000°23'1 4.0
2018-Jun-14 16:58N 05°34' E 000°22'2 4.0
2018-Jun-14 16:29N 05°33' E 000°20'1 2.5
2018-Jun-14 15:59N 05°32' E 000°19'3 6.6
2018-Jun-14 15:30N 05°30' E 000°16'510.1
2018-Jun-14 15:00N 05°27' E 000°12'510.1
2018-Jun-14 14:29N 05°24' E 000°08'  

Dump ship's entire track history